Current Conditions
Clear
Conditions



Pressure
30.06 (inHG) - 1017.92 (mb)
Visibility

10.0 (mimiles) - 16.1 (km)
   Temperature
57  °F
14°C
36  °F
Dewpoint
44  %
 Humidity
   Wind Speed
0  mph
0  kts
0  km/h
0  m/s
   Wind Direction
Calm
Due North
   Airport Data
KTZR
Location Bolton Field 6 mi (9.65 km)
Metar :KTZR 181850Z 00000KT 10SM SKC 14/02 A3006
Fri 18th October 14:50 pm
   Raw Metar Info
Raw METAR is the most common format in the world for the transmission of observational weather data. It is highly standardized through the International Civil Aviation Organization (ICAO), which allows it to be understood throughout most of the world.
   API Info
Data Provided by
https://www.checkwx.com/weather/KTZR
   © Info
CSS/SVG/PHP scripts were developed by weather34.com for use in the weather34 template © 2015-2019

Guide Info provided by Metar-Wikipedia